createdAt,value
2022-08-31T00:00:34.193Z,14.82
2022-08-31T00:03:19.778Z,14.81
2022-08-31T00:05:47.708Z,14.67
2022-08-31T00:08:15.429Z,14.54
2022-08-31T00:10:46.274Z,14.56
2022-08-31T00:13:14.591Z,14.51
2022-08-31T00:15:44.320Z,14.45
2022-08-31T00:18:11.849Z,14.29
2022-08-31T00:20:39.627Z,14.20
2022-08-31T00:23:10.638Z,14.16
2022-08-31T00:25:39.579Z,14.00
2022-08-31T00:28:10.544Z,13.97
2022-08-31T00:30:38.509Z,13.93
2022-08-31T00:33:07.710Z,13.91
2022-08-31T00:35:36.926Z,13.91
2022-08-31T00:38:04.967Z,13.95
2022-08-31T00:40:33.148Z,13.91
2022-08-31T00:43:10.890Z,13.91
2022-08-31T00:45:38.428Z,13.93
2022-08-31T00:48:07.463Z,13.85
2022-08-31T00:50:35.344Z,13.84
2022-08-31T00:53:04.786Z,13.74
2022-08-31T00:55:34.942Z,13.70
2022-08-31T00:58:05.430Z,13.72
2022-08-31T01:00:33.122Z,13.66
2022-08-31T01:03:02.664Z,13.48
2022-08-31T01:05:32.339Z,13.61
2022-08-31T01:08:01.210Z,13.65
2022-08-31T01:10:36.434Z,13.52
2022-08-31T01:13:04.686Z,13.42
2022-08-31T01:15:32.785Z,13.29
2022-08-31T01:18:02.639Z,13.30
2022-08-31T01:20:37.950Z,13.19
2022-08-31T01:23:17.572Z,13.08
2022-08-31T01:25:48.518Z,13.16
2022-08-31T01:28:16.469Z,13.15
2022-08-31T01:30:44.934Z,13.17
2022-08-31T01:33:13.696Z,13.13
2022-08-31T01:35:44.875Z,13.11
2022-08-31T01:38:13.220Z,13.11
2022-08-31T01:40:50.036Z,13.07
2022-08-31T01:43:17.826Z,12.99
2022-08-31T01:45:45.592Z,12.95
2022-08-31T01:48:13.791Z,12.90
2022-08-31T01:50:41.387Z,12.87
2022-08-31T01:53:10.888Z,12.89
2022-08-31T01:55:39.574Z,12.82
2022-08-31T01:58:10.366Z,12.69
2022-08-31T02:00:56.204Z,12.67
2022-08-31T02:03:23.773Z,12.61
2022-08-31T02:08:19.929Z,12.47
2022-08-31T02:10:47.618Z,12.49
2022-08-31T02:13:17.605Z,12.49
2022-08-31T02:15:45.386Z,12.54
2022-08-31T02:18:17.155Z,12.48
2022-08-31T02:20:46.757Z,12.51
2022-08-31T02:23:14.344Z,12.49
2022-08-31T02:25:42.081Z,12.35
2022-08-31T02:28:12.599Z,12.44
2022-08-31T02:30:41.977Z,12.38
2022-08-31T02:33:10.649Z,12.30
2022-08-31T02:35:39.237Z,12.16
2022-08-31T02:38:07.077Z,12.21
2022-08-31T02:40:38.463Z,12.17
2022-08-31T02:43:08.434Z,12.18
2022-08-31T02:45:36.117Z,12.17
2022-08-31T02:48:12.621Z,12.13
2022-08-31T02:50:43.357Z,12.09
2022-08-31T02:53:11.928Z,12.17
2022-08-31T02:55:40.254Z,12.13
2022-08-31T02:58:10.165Z,12.02
2022-08-31T03:00:38.783Z,11.98
2022-08-31T03:03:06.926Z,12.04
2022-08-31T03:05:36.042Z,11.96
2022-08-31T03:08:04.329Z,11.96
2022-08-31T03:10:32.049Z,11.90
2022-08-31T03:12:59.688Z,11.80
2022-08-31T03:15:27.505Z,11.83
2022-08-31T03:17:55.481Z,11.75
2022-08-31T03:20:26.446Z,11.68
2022-08-31T03:22:55.842Z,11.72
2022-08-31T03:25:27.211Z,11.64
2022-08-31T03:27:54.836Z,11.63
2022-08-31T03:30:23.264Z,11.63
2022-08-31T03:33:04.177Z,11.66
2022-08-31T03:35:34.621Z,11.63
2022-08-31T03:38:08.531Z,11.63
2022-08-31T03:40:36.097Z,11.64
2022-08-31T03:43:04.933Z,11.62
2022-08-31T03:45:34.953Z,11.61
2022-08-31T03:48:04.085Z,11.62
2022-08-31T03:50:31.771Z,11.59
2022-08-31T03:53:08.305Z,11.56
2022-08-31T03:55:42.023Z,11.39
2022-08-31T03:58:11.333Z,11.52
2022-08-31T04:00:39.312Z,11.45
2022-08-31T04:03:16.285Z,11.43
2022-08-31T04:06:15.967Z,11.41
2022-08-31T04:09:17.192Z,11.39
2022-08-31T04:12:03.061Z,11.45
2022-08-31T04:14:50.638Z,11.28
2022-08-31T04:17:57.229Z,11.22
2022-08-31T04:20:44.353Z,11.23
2022-08-31T04:23:12.790Z,11.28
2022-08-31T04:25:48.758Z,11.27
2022-08-31T04:28:16.562Z,11.32
2022-08-31T04:30:45.810Z,11.35
2022-08-31T04:33:16.770Z,11.32
2022-08-31T04:35:44.928Z,11.32
2022-08-31T04:38:12.765Z,11.34
2022-08-31T04:40:43.445Z,11.34
2022-08-31T04:43:13.738Z,11.32
2022-08-31T04:45:44.625Z,11.32
2022-08-31T04:48:13.999Z,11.33
2022-08-31T04:50:43.252Z,11.26
2022-08-31T04:53:11.360Z,11.40
2022-08-31T04:55:41.045Z,11.41
2022-08-31T04:58:09.637Z,11.43
2022-08-31T05:00:38.647Z,11.27
2022-08-31T05:03:18.769Z,11.47
2022-08-31T05:05:50.647Z,11.50
2022-08-31T05:08:18.310Z,11.60
2022-08-31T05:10:46.147Z,11.69
2022-08-31T05:13:13.855Z,11.77
2022-08-31T05:15:43.888Z,11.83
2022-08-31T05:18:14.463Z,11.94
2022-08-31T05:20:49.274Z,12.05
2022-08-31T05:23:17.719Z,12.12
2022-08-31T05:25:45.742Z,12.12
2022-08-31T05:28:13.873Z,12.25
2022-08-31T05:30:45.802Z,12.35
2022-08-31T05:33:27.973Z,12.52
2022-08-31T05:35:55.580Z,12.66
2022-08-31T05:38:23.143Z,12.83
2022-08-31T05:40:53.466Z,13.08
2022-08-31T05:43:21.757Z,13.37
2022-08-31T05:45:50.827Z,13.70
2022-08-31T05:48:18.882Z,13.84
2022-08-31T05:50:46.778Z,14.03
2022-08-31T05:53:15.175Z,14.19
2022-08-31T05:55:43.068Z,14.34
2022-08-31T05:58:11.494Z,14.53
2022-08-31T06:00:39.779Z,14.61
2022-08-31T06:03:29.411Z,14.78
2022-08-31T06:05:57.314Z,14.92
2022-08-31T06:08:27.574Z,15.10
2022-08-31T06:10:57.758Z,15.16
2022-08-31T06:13:26.438Z,15.35
2022-08-31T06:15:54.662Z,15.44
2022-08-31T06:18:22.338Z,15.59
2022-08-31T06:20:51.399Z,15.49
2022-08-31T06:23:19.687Z,15.69
2022-08-31T06:25:50.141Z,15.85
2022-08-31T06:28:17.690Z,15.93
2022-08-31T06:30:54.777Z,16.13
2022-08-31T06:33:24.427Z,16.21
2022-08-31T06:36:10.650Z,16.31
2022-08-31T06:38:55.486Z,16.42
2022-08-31T06:41:55.886Z,16.42
2022-08-31T06:44:34.689Z,16.60
2022-08-31T06:47:14.414Z,16.78
2022-08-31T06:49:42.759Z,17.13
2022-08-31T06:52:15.068Z,17.63
2022-08-31T06:54:46.385Z,18.25
2022-08-31T06:57:49.189Z,18.48
2022-08-31T07:00:36.419Z,18.59
2022-08-31T07:03:24.123Z,19.05
2022-08-31T07:05:53.510Z,19.22
2022-08-31T07:08:23.250Z,19.02
2022-08-31T07:13:19.640Z,19.55
2022-08-31T07:15:47.684Z,19.41
2022-08-31T07:18:15.743Z,19.62
2022-08-31T07:20:43.381Z,19.76
2022-08-31T07:23:13.710Z,19.81
2022-08-31T07:25:51.469Z,19.94
2022-08-31T07:28:19.208Z,19.94
2022-08-31T07:30:49.892Z,20.20
2022-08-31T07:33:18.181Z,19.94
2022-08-31T07:35:52.172Z,19.60
2022-08-31T07:38:44.377Z,20.02
2022-08-31T07:41:31.385Z,20.36
2022-08-31T07:43:59.477Z,20.20
2022-08-31T07:46:30.036Z,20.06
2022-08-31T07:48:58.134Z,19.98
2022-08-31T07:51:52.925Z,20.09
2022-08-31T07:54:30.128Z,20.11
2022-08-31T07:57:25.585Z,20.62
2022-08-31T07:59:55.728Z,20.57
2022-08-31T08:02:23.990Z,20.54
2022-08-31T08:04:54.289Z,20.57
2022-08-31T08:07:41.257Z,20.38
2022-08-31T08:10:22.159Z,19.75
2022-08-31T08:13:06.517Z,19.95
2022-08-31T08:15:46.479Z,19.94
2022-08-31T08:18:30.339Z,19.89
2022-08-31T08:21:01.549Z,20.33
2022-08-31T08:23:30.184Z,20.52
2022-08-31T08:26:21.592Z,21.44
2022-08-31T08:29:06.120Z,21.98
2022-08-31T08:31:36.462Z,22.00
2022-08-31T08:34:04.513Z,22.71
2022-08-31T08:36:35.847Z,22.52
2022-08-31T08:39:06.102Z,22.27
2022-08-31T08:41:37.242Z,21.94
2022-08-31T08:44:11.355Z,21.75
2022-08-31T08:46:49.495Z,22.10
2022-08-31T08:49:21.873Z,22.77
2022-08-31T08:51:56.050Z,23.31
2022-08-31T08:54:31.198Z,23.24
2022-08-31T08:57:01.769Z,23.05
2022-08-31T08:59:31.216Z,23.21
2022-08-31T09:02:04.893Z,23.46
2022-08-31T09:04:45.541Z,23.87
2022-08-31T09:07:44.881Z,24.35
2022-08-31T09:10:20.438Z,24.09
2022-08-31T09:13:01.637Z,24.22
2022-08-31T09:15:38.944Z,24.39
2022-08-31T09:18:30.429Z,23.97
2022-08-31T09:21:07.056Z,23.81
2022-08-31T09:23:38.063Z,23.24
2022-08-31T09:26:08.554Z,23.05
2022-08-31T09:29:03.671Z,23.29
2022-08-31T09:31:46.515Z,23.13
2022-08-31T09:34:28.377Z,22.80
2022-08-31T09:37:15.977Z,22.62
2022-08-31T09:39:47.546Z,22.71
2022-08-31T09:42:20.819Z,22.64
2022-08-31T09:44:50.215Z,22.90
2022-08-31T09:50:13.550Z,24.18
2022-08-31T09:53:04.505Z,24.70
2022-08-31T09:55:32.174Z,24.26
2022-08-31T09:58:07.709Z,24.32
2022-08-31T10:00:39.679Z,24.02
2022-08-31T10:03:13.350Z,23.69
2022-08-31T10:05:44.373Z,23.57
2022-08-31T10:08:20.787Z,23.68
2022-08-31T10:10:50.031Z,23.74
2022-08-31T10:13:20.197Z,24.39
2022-08-31T10:15:56.087Z,24.45
2022-08-31T10:18:29.037Z,24.29
2022-08-31T10:21:07.867Z,23.90
2022-08-31T10:23:38.966Z,24.41
2022-08-31T10:26:09.278Z,24.79
2022-08-31T10:28:40.774Z,25.20
2022-08-31T10:31:13.542Z,25.29
2022-08-31T10:34:01.349Z,25.21
2022-08-31T10:36:36.230Z,25.06
2022-08-31T10:39:05.056Z,25.29
2022-08-31T10:41:37.453Z,24.91
2022-08-31T10:44:24.271Z,24.44
2022-08-31T10:46:54.252Z,24.32
2022-08-31T10:49:24.742Z,23.97
2022-08-31T10:52:01.713Z,24.23
2022-08-31T10:54:36.913Z,24.44
2022-08-31T10:57:09.894Z,24.24
2022-08-31T10:59:56.082Z,24.35
2022-08-31T11:02:52.900Z,24.65
2022-08-31T11:05:31.119Z,24.24
2022-08-31T11:08:13.810Z,24.04
2022-08-31T11:10:48.765Z,23.87
2022-08-31T11:13:28.998Z,23.39
2022-08-31T11:16:06.198Z,23.26
2022-08-31T11:18:57.850Z,23.82
2022-08-31T11:22:18.993Z,24.17
2022-08-31T11:25:06.138Z,23.73
2022-08-31T11:27:36.895Z,23.53
2022-08-31T11:30:08.207Z,23.25
2022-08-31T11:32:38.266Z,24.03
2022-08-31T11:35:10.053Z,24.56
2022-08-31T11:37:55.891Z,25.21
2022-08-31T11:41:00.189Z,25.57
2022-08-31T11:43:45.769Z,25.81
2022-08-31T11:46:40.477Z,25.90
2022-08-31T11:49:11.780Z,25.47
2022-08-31T11:51:46.113Z,25.33
2022-08-31T11:54:15.127Z,25.31
2022-08-31T11:56:47.439Z,25.34
2022-08-31T11:59:26.339Z,24.77
2022-08-31T12:01:56.477Z,24.97
2022-08-31T12:05:00.588Z,24.60
2022-08-31T12:07:32.335Z,25.23
2022-08-31T12:10:21.283Z,25.38
2022-08-31T12:13:30.905Z,25.68
2022-08-31T12:16:30.072Z,26.46
2022-08-31T12:19:28.343Z,25.91
2022-08-31T12:22:18.021Z,25.94
2022-08-31T12:24:52.730Z,25.43
2022-08-31T12:53:43.326Z,26.50
2022-08-31T12:56:15.417Z,26.91
2022-08-31T12:58:57.713Z,27.56
2022-08-31T13:03:23.795Z,26.79
2022-08-31T13:06:06.683Z,26.71
2022-08-31T13:08:37.749Z,27.20
2022-08-31T13:11:23.907Z,27.75
2022-08-31T13:13:52.307Z,28.11
2022-08-31T13:16:20.123Z,27.84
2022-08-31T13:18:50.558Z,27.80
2022-08-31T13:21:22.861Z,28.05
2022-08-31T13:23:51.969Z,27.83
2022-08-31T13:26:22.765Z,28.25
2022-08-31T13:28:52.323Z,28.83
2022-08-31T13:31:21.546Z,28.60
2022-08-31T13:33:50.597Z,28.73
2022-08-31T13:36:32.117Z,29.03
2022-08-31T13:39:02.810Z,28.54
2022-08-31T13:41:35.642Z,28.97
2022-08-31T13:44:08.802Z,29.01
2022-08-31T13:46:43.213Z,29.32
2022-08-31T13:49:25.207Z,29.35
2022-08-31T13:51:53.046Z,29.23
2022-08-31T13:54:27.721Z,28.54
2022-08-31T13:56:59.921Z,27.26
2022-08-31T13:59:32.527Z,26.40
2022-08-31T14:02:02.488Z,26.70
2022-08-31T14:04:48.329Z,25.96
2022-08-31T14:07:19.358Z,25.73
2022-08-31T14:09:48.801Z,26.41
2022-08-31T14:12:39.432Z,27.10
2022-08-31T14:15:20.039Z,27.25
2022-08-31T14:21:03.949Z,27.30
2022-08-31T14:23:35.316Z,27.70
2022-08-31T14:26:05.874Z,27.91
2022-08-31T14:28:41.631Z,27.89
2022-08-31T14:31:24.532Z,28.73
2022-08-31T14:34:08.085Z,28.31
2022-08-31T14:36:52.609Z,28.66
2022-08-31T14:39:26.454Z,29.28
2022-08-31T14:41:55.139Z,30.30
2022-08-31T14:44:28.417Z,29.96
2022-08-31T14:46:56.126Z,30.05
2022-08-31T14:49:24.713Z,30.06
2022-08-31T14:51:53.655Z,29.24
2022-08-31T14:54:21.698Z,29.65
2022-08-31T14:56:50.736Z,29.99
2022-08-31T14:59:21.215Z,29.84
2022-08-31T15:01:51.964Z,29.94
2022-08-31T15:04:21.802Z,29.09
2022-08-31T15:06:52.512Z,28.20
2022-08-31T15:09:22.136Z,28.66
2022-08-31T15:11:50.846Z,28.60
2022-08-31T15:14:19.094Z,28.56
2022-08-31T15:16:48.755Z,28.73
2022-08-31T15:19:16.790Z,28.67
2022-08-31T15:21:52.660Z,29.07
2022-08-31T15:24:27.947Z,29.21
2022-08-31T15:26:58.544Z,29.36
2022-08-31T15:29:30.097Z,29.19
2022-08-31T15:31:59.587Z,28.35
2022-08-31T15:34:30.226Z,28.53
2022-08-31T15:37:02.042Z,29.14
2022-08-31T15:39:34.928Z,29.46
2022-08-31T15:42:04.868Z,28.92
2022-08-31T15:44:33.472Z,28.68
2022-08-31T15:47:20.560Z,28.54
2022-08-31T15:49:48.037Z,28.56
2022-08-31T15:55:01.937Z,28.79
2022-08-31T15:57:36.792Z,27.89
2022-08-31T16:00:05.444Z,27.64
2022-08-31T16:02:35.387Z,27.28
2022-08-31T16:05:03.461Z,26.59
2022-08-31T16:07:31.136Z,26.56
2022-08-31T16:09:58.909Z,25.62
2022-08-31T16:12:27.937Z,25.46
2022-08-31T16:14:56.005Z,25.02
2022-08-31T16:17:23.554Z,24.55
2022-08-31T16:19:51.766Z,24.20
2022-08-31T16:22:20.806Z,24.00
2022-08-31T16:24:49.825Z,23.58
2022-08-31T16:27:19.534Z,23.57
2022-08-31T16:29:50.750Z,23.53
2022-08-31T16:32:18.803Z,23.46
2022-08-31T16:34:46.645Z,23.34
2022-08-31T16:37:14.184Z,22.89
2022-08-31T16:39:46.653Z,22.92
2022-08-31T16:42:15.082Z,22.98
2022-08-31T16:44:45.793Z,22.68
2022-08-31T16:47:15.922Z,22.62
2022-08-31T16:49:43.435Z,22.32
2022-08-31T16:52:14.586Z,22.34
2022-08-31T16:54:44.880Z,22.21
2022-08-31T16:57:14.008Z,22.29
2022-08-31T16:59:41.835Z,22.28
2022-08-31T17:02:11.610Z,22.29
2022-08-31T17:04:52.024Z,22.09
2022-08-31T17:07:20.699Z,21.98
2022-08-31T17:09:48.416Z,22.07
2022-08-31T17:12:19.108Z,22.04
2022-08-31T17:14:52.398Z,21.85
2022-08-31T17:17:22.496Z,21.81
2022-08-31T17:19:53.124Z,21.67
2022-08-31T17:22:28.435Z,21.79
2022-08-31T17:25:04.588Z,21.69
2022-08-31T17:27:34.078Z,21.56
2022-08-31T17:30:05.658Z,21.53
2022-08-31T17:32:34.803Z,21.49
2022-08-31T17:35:04.140Z,21.31
2022-08-31T17:37:36.353Z,21.44
2022-08-31T17:40:08.011Z,21.29
2022-08-31T17:42:36.648Z,21.13
2022-08-31T17:45:06.288Z,20.98
2022-08-31T17:47:34.234Z,20.90
2022-08-31T17:50:03.232Z,20.88
2022-08-31T17:52:30.950Z,20.80
2022-08-31T17:55:00.113Z,20.58
2022-08-31T17:57:29.223Z,20.38
2022-08-31T17:59:56.957Z,20.20
2022-08-31T18:02:32.142Z,20.08
2022-08-31T18:04:59.802Z,20.06
2022-08-31T18:07:29.229Z,19.79
2022-08-31T18:09:57.150Z,19.64
2022-08-31T18:12:25.789Z,19.53
2022-08-31T18:14:57.272Z,19.44
2022-08-31T18:17:26.453Z,19.33
2022-08-31T18:19:54.593Z,19.10
2022-08-31T18:22:22.240Z,18.93
2022-08-31T18:24:51.182Z,18.53
2022-08-31T18:27:18.846Z,18.69
2022-08-31T18:29:46.452Z,18.54
2022-08-31T18:32:14.462Z,18.35
2022-08-31T18:34:44.578Z,18.25
2022-08-31T18:37:13.738Z,18.02
2022-08-31T18:39:59.622Z,17.88
2022-08-31T18:42:46.928Z,17.55
2022-08-31T18:45:18.996Z,17.43
2022-08-31T18:48:07.211Z,17.18
2022-08-31T18:50:36.978Z,17.11
2022-08-31T18:53:08.216Z,17.05
2022-08-31T18:55:42.705Z,16.90
2022-08-31T18:58:11.684Z,16.61
2022-08-31T19:00:40.159Z,16.43
2022-08-31T19:03:08.475Z,16.27
2022-08-31T19:05:39.081Z,16.15
2022-08-31T19:08:06.728Z,16.06
2022-08-31T19:10:35.286Z,15.94
2022-08-31T19:13:07.371Z,15.80
2022-08-31T19:15:38.947Z,15.66
2022-08-31T19:18:06.666Z,15.62
2022-08-31T19:20:35.356Z,15.50
2022-08-31T19:23:03.080Z,15.41
2022-08-31T19:25:31.796Z,15.35
2022-08-31T19:28:01.325Z,15.25
2022-08-31T19:30:29.108Z,15.20
2022-08-31T19:32:58.118Z,15.00
2022-08-31T19:35:27.497Z,14.96
2022-08-31T19:37:56.019Z,14.85
2022-08-31T19:40:35.599Z,14.78
2022-08-31T19:45:51.546Z,14.62
2022-08-31T19:48:23.230Z,14.58
2022-08-31T19:50:51.373Z,14.57
2022-08-31T19:53:22.609Z,14.46
2022-08-31T19:55:53.348Z,14.46
2022-08-31T19:58:26.324Z,14.37
2022-08-31T20:01:02.474Z,14.35
2022-08-31T20:03:33.982Z,14.32
2022-08-31T20:06:06.404Z,14.13
2022-08-31T20:08:34.322Z,14.17
2022-08-31T20:11:03.000Z,14.12
2022-08-31T20:13:30.559Z,14.10
2022-08-31T20:15:58.219Z,14.12
2022-08-31T20:18:28.109Z,14.07
2022-08-31T20:20:59.186Z,14.03
2022-08-31T20:23:28.137Z,14.00
2022-08-31T20:25:55.738Z,13.98
2022-08-31T20:28:26.820Z,13.94
2022-08-31T20:30:59.812Z,13.88
2022-08-31T20:33:28.177Z,13.88
2022-08-31T20:35:57.110Z,13.79
2022-08-31T20:38:29.825Z,13.71
2022-08-31T20:40:57.689Z,13.64
2022-08-31T20:43:27.051Z,13.53
2022-08-31T20:45:54.751Z,13.48
2022-08-31T20:48:39.905Z,13.41
2022-08-31T20:51:19.981Z,13.42
2022-08-31T20:53:48.775Z,13.32
2022-08-31T20:56:18.023Z,13.20
2022-08-31T20:58:46.000Z,13.18
2022-08-31T21:01:15.922Z,13.24
2022-08-31T21:03:43.638Z,13.21
2022-08-31T21:06:13.158Z,13.08
2022-08-31T21:08:42.104Z,13.10
2022-08-31T21:11:14.086Z,13.06
2022-08-31T21:13:42.699Z,13.05
2022-08-31T21:16:10.585Z,13.05
2022-08-31T21:18:39.987Z,13.01
2022-08-31T21:21:09.916Z,12.93
2022-08-31T21:23:41.055Z,12.88
2022-08-31T21:26:08.828Z,12.82
2022-08-31T21:28:38.332Z,12.85
2022-08-31T21:31:15.460Z,12.80
2022-08-31T21:33:46.717Z,12.70
2022-08-31T21:36:15.923Z,12.76
2022-08-31T21:38:47.330Z,12.65
2022-08-31T21:41:18.090Z,12.62
2022-08-31T21:43:45.672Z,12.57
2022-08-31T21:46:15.155Z,12.54
2022-08-31T21:48:44.768Z,12.47
2022-08-31T21:51:14.360Z,12.43
2022-08-31T21:53:43.269Z,12.41
2022-08-31T21:56:12.685Z,12.43
2022-08-31T21:58:43.653Z,12.44
2022-08-31T22:01:18.083Z,12.35
2022-08-31T22:03:46.177Z,12.33
2022-08-31T22:06:15.606Z,12.24
2022-08-31T22:08:45.479Z,12.19
2022-08-31T22:11:14.720Z,12.27
2022-08-31T22:13:43.801Z,12.23
2022-08-31T22:16:18.763Z,12.12
2022-08-31T22:19:06.422Z,12.24
2022-08-31T22:21:36.686Z,12.21
2022-08-31T22:24:06.343Z,12.13
2022-08-31T22:26:38.466Z,12.11
2022-08-31T22:29:12.030Z,12.02
2022-08-31T22:31:40.879Z,12.05
2022-08-31T22:34:10.744Z,11.92
2022-08-31T22:36:38.432Z,11.83
2022-08-31T22:39:10.370Z,11.69
2022-08-31T22:41:41.758Z,11.70
2022-08-31T22:44:14.355Z,11.67
2022-08-31T22:46:42.430Z,11.59
2022-08-31T22:49:10.270Z,11.58
2022-08-31T22:51:42.241Z,11.49
2022-08-31T22:54:11.266Z,11.59
2022-08-31T22:56:40.858Z,11.62
2022-08-31T22:59:10.628Z,11.56
2022-08-31T23:01:41.853Z,11.56
2022-08-31T23:04:12.545Z,11.54
2022-08-31T23:06:40.172Z,11.58
2022-08-31T23:09:10.633Z,11.55
2022-08-31T23:11:40.208Z,11.48
2022-08-31T23:14:10.369Z,11.51
2022-08-31T23:16:40.405Z,11.50
2022-08-31T23:19:12.295Z,11.49
2022-08-31T23:21:44.396Z,11.51
2022-08-31T23:24:12.567Z,11.48
2022-08-31T23:26:41.547Z,11.49
2022-08-31T23:29:10.182Z,11.38
2022-08-31T23:31:38.867Z,11.43
2022-08-31T23:34:11.406Z,11.39
2022-08-31T23:36:40.641Z,11.34
2022-08-31T23:39:11.815Z,11.41
2022-08-31T23:41:40.816Z,11.43
2022-08-31T23:44:09.977Z,11.35
2022-08-31T23:46:39.561Z,11.28
2022-08-31T23:49:10.418Z,11.30
2022-08-31T23:51:38.186Z,11.35
2022-08-31T23:54:07.963Z,11.52
2022-08-31T23:56:38.423Z,11.57
2022-08-31T23:59:10.189Z,11.58
